Time;durP1;ratioP1;P1;durP2;ratioP2;P2;SDS_P1;SDS_P2;PMS_P1;PMS_P2;Temp;Humidity;BMP_temperature;BMP_pressure;BME280_temperature;BME280_humidity;BME280_pressure;Samples;Min_cycle;Max_cycle;Signal;HPM_P1;HPM_P2
2023/09/03 00:01:43;;;;;;;;;;;19.90;51.20;;;19.14;51.69;101924.06;12138113;19;20661;-83
2023/09/03 00:05:53;;;;;;;;;;;19.90;51.20;;;19.17;51.61;101921.22;12142090;19;19926;-83
2023/09/03 00:09:55;;;;;;;;;;;20.00;51.30;;;19.18;52.03;101925.56;12144292;19;19935;-83
2023/09/03 00:13:57;;;;;;;;;;;19.90;51.30;;;19.22;51.64;101928.81;12143938;19;20824;-83
2023/09/03 00:17:59;;;;;;;;;;;19.90;51.30;;;19.16;51.63;101918.69;12141567;19;19919;-83
2023/09/03 00:22:01;;;;;;;;;;;20.00;51.30;;;19.20;51.94;101914.88;12138032;19;20215;-83
2023/09/03 00:26:02;;;;;;;;;;;20.00;51.30;;;19.12;51.96;101896.88;12141470;19;20702;-83
2023/09/03 00:30:05;;;;;;;;;;;20.00;51.30;;;19.09;52.10;101890.94;12139069;19;19933;-83
2023/09/03 00:34:06;;;;;;;;;;;20.00;51.40;;;19.17;52.13;101921.22;12132385;19;19925;-82
2023/09/03 00:38:08;;;;;;;;;;;20.00;51.40;;;19.15;51.77;101915.19;12131703;19;19929;-83
2023/09/03 00:42:11;;;;;;;;;;;20.00;51.40;;;19.15;51.91;101922.28;12132447;19;19923;-83
2023/09/03 00:46:12;;;;;;;;;;;20.00;51.40;;;19.18;51.82;101933.50;12132077;19;20788;-83
2023/09/03 00:50:15;;;;;;;;;;;20.00;51.50;;;19.14;51.90;101925.88;12131430;19;19923;-85
2023/09/03 00:54:16;;;;;;;;;;;20.00;51.50;;;19.17;52.19;101929.19;12130024;19;19923;-85
2023/09/03 01:03:22;;;;;;;;;;;20.00;51.60;;;19.11;52.31;101918.16;12133865;19;19923;-85
2023/09/03 01:07:25;;;;;;;;;;;20.00;51.60;;;19.08;52.35;101918.38;12131057;19;20303;-85
2023/09/03 01:11:38;;;;;;;;;;;20.00;51.70;;;19.12;52.08;101926.00;12129001;19;20459;-85
2023/09/03 01:15:44;;;;;;;;;;;19.90;51.70;;;19.11;52.21;101923.47;12129058;19;19919;-85
2023/09/03 01:20:12;;;;;;;;;;;19.90;51.70;;;19.16;52.01;101938.06;12129262;19;19930;-85
2023/09/03 01:29:19;;;;;;;;;;;19.90;51.70;;;19.05;52.36;101922.09;12132310;19;19915;-85
2023/09/03 01:33:20;;;;;;;;;;;19.90;51.70;;;19.11;52.26;101931.41;12128596;19;19927;-85
2023/09/03 01:37:23;;;;;;;;;;;19.90;51.70;;;19.13;52.21;101929.50;12132697;19;20286;-85
2023/09/03 01:41:24;;;;;;;;;;;19.90;51.90;;;19.12;52.36;101930.44;12130152;19;19926;-86
2023/09/03 01:45:35;;;;;;;;;;;19.90;51.80;;;19.08;52.34;101929.81;12138511;19;20485;-85
2023/09/03 01:49:48;;;;;;;;;;;19.90;51.80;;;19.07;52.53;101924.66;12141092;19;19930;-85
2023/09/03 01:54:13;;;;;;;;;;;19.90;51.80;;;19.05;52.38;101913.31;12141253;19;20336;-85
2023/09/03 01:58:16;;;;;;;;;;;19.80;51.70;;;19.09;52.54;101917.41;12142662;19;19922;-85
2023/09/03 02:02:19;;;;;;;;;;;19.80;51.80;;;19.09;52.69;101923.59;12139396;19;19938;-85
2023/09/03 02:06:21;;;;;;;;;;;19.80;51.80;;;19.04;52.33;101920.41;12143577;19;20238;-84
2023/09/03 02:10:22;;;;;;;;;;;19.90;51.80;;;19.07;52.66;101914.06;12139355;19;20014;-84
2023/09/03 02:14:24;;;;;;;;;;;19.80;51.80;;;19.00;52.29;101905.69;12138619;19;20211;-85
2023/09/03 02:18:26;;;;;;;;;;;19.90;51.70;;;18.94;52.30;101903.50;12136853;19;20704;-84
2023/09/03 02:22:28;;;;;;;;;;;19.80;51.70;;;18.95;52.38;101905.19;12140121;19;19948;-84
2023/09/03 02:26:29;;;;;;;;;;;19.80;51.70;;;18.97;52.64;101914.69;12142302;19;19952;-84
2023/09/03 02:30:31;;;;;;;;;;;19.80;51.80;;;18.95;52.66;101895.44;12139921;19;19926;-85
2023/09/03 02:34:32;;;;;;;;;;;19.80;51.80;;;18.96;52.79;101905.09;12143141;19;20265;-84
2023/09/03 02:38:34;;;;;;;;;;;19.80;51.80;;;18.90;52.63;101899.38;12138588;19;19923;-84
2023/09/03 02:42:35;;;;;;;;;;;19.80;51.90;;;18.94;52.69;101925.53;12135703;19;19936;-84
2023/09/03 02:46:36;;;;;;;;;;;19.80;51.80;;;18.94;52.54;101935.25;12140223;19;20275;-85
2023/09/03 02:50:38;;;;;;;;;;;19.70;51.80;;;18.89;52.81;101925.00;12136344;19;19923;-84
2023/09/03 02:54:39;;;;;;;;;;;19.70;51.70;;;18.83;52.70;101912.22;12134153;19;20006;-84
2023/09/03 02:58:42;;;;;;;;;;;19.70;51.40;;;18.90;52.53;101918.75;12133383;19;20790;-85
2023/09/03 03:02:44;;;;;;;;;;;19.70;52.10;;;18.82;52.50;101904.38;12134862;19;20652;-84
2023/09/03 03:06:47;;;;;;;;;;;19.60;51.70;;;18.88;52.76;101901.31;12137934;19;20341;-84
2023/09/03 03:10:50;;;;;;;;;;;19.70;51.90;;;18.88;52.57;101899.50;12137675;19;19992;-84
2023/09/03 03:14:53;;;;;;;;;;;19.70;51.80;;;18.73;52.79;101882.03;12137578;19;20005;-84
2023/09/03 03:18:54;;;;;;;;;;;19.70;51.80;;;18.83;52.99;101906.91;12136227;19;19922;-85
2023/09/03 03:23:01;;;;;;;;;;;19.60;51.80;;;18.82;52.73;101909.66;12134593;19;19922;-84
2023/09/03 03:27:02;;;;;;;;;;;19.60;51.80;;;18.76;52.65;101906.50;12137552;19;20798;-84
2023/09/03 03:31:11;;;;;;;;;;;19.60;51.80;;;18.81;52.95;101913.28;12136503;19;20271;-84
2023/09/03 03:35:14;;;;;;;;;;;19.60;51.90;;;18.81;52.63;101911.47;12138919;19;19949;-85
2023/09/03 03:39:15;;;;;;;;;;;19.60;51.90;;;18.80;52.81;101917.72;12137656;19;20320;-84
2023/09/03 03:43:17;;;;;;;;;;;19.60;51.90;;;18.78;52.67;101924.91;12134776;19;19922;-84
2023/09/03 03:47:20;;;;;;;;;;;19.60;51.80;;;18.72;52.77;101920.03;12136918;19;20348;-85
2023/09/03 03:51:22;;;;;;;;;;;19.60;51.90;;;18.75;52.91;101931.28;12133434;19;19922;-85
2023/09/03 03:55:23;;;;;;;;;;;19.50;51.80;;;18.74;52.88;101928.69;12136961;19;20709;-85
2023/09/03 03:59:25;;;;;;;;;;;19.50;51.90;;;18.73;52.88;101937.59;12136386;19;19926;-84
2023/09/03 04:03:27;;;;;;;;;;;19.50;51.90;;;18.74;53.06;101944.56;12135039;19;20724;-84
2023/09/03 04:07:29;;;;;;;;;;;19.50;51.90;;;18.65;53.03;101921.41;12133201;19;19921;-85
2023/09/03 04:11:30;;;;;;;;;;;19.50;51.90;;;18.65;52.88;101924.06;12133051;19;19933;-85
2023/09/03 04:15:32;;;;;;;;;;;19.50;52.00;;;18.65;52.99;101918.75;12135197;19;19923;-85
2023/09/03 04:19:33;;;;;;;;;;;19.50;52.00;;;18.67;53.03;101930.09;12132809;19;19965;-85
2023/09/03 04:24:25;;;;;;;;;;;19.50;51.90;;;18.68;53.10;101940.56;12129658;19;20216;-85
2023/09/03 04:28:27;;;;;;;;;;;19.50;52.00;;;18.60;53.12;101949.97;12139998;19;20188;-85
2023/09/03 04:32:49;;;;;;;;;;;19.40;51.90;;;18.58;53.16;101955.41;12137583;19;19938;-85
2023/09/03 04:36:51;;;;;;;;;;;19.50;52.00;;;18.54;52.95;101944.16;12131362;19;21299;-85
2023/09/03 04:40:54;;;;;;;;;;;19.40;51.90;;;18.55;53.22;101950.28;12130638;19;19950;-85
2023/09/03 04:44:57;;;;;;;;;;;19.40;52.00;;;18.56;53.15;101954.66;12131783;19;20853;-85
2023/09/03 04:48:59;;;;;;;;;;;19.40;52.40;;;18.55;52.91;101969.69;12130762;19;20014;-85
2023/09/03 04:53:00;;;;;;;;;;;19.30;52.10;;;18.49;53.14;101959.50;12128622;19;19934;-85
2023/09/03 04:57:03;;;;;;;;;;;19.30;52.20;;;18.51;52.97;101978.78;12128848;19;19926;-85
2023/09/03 05:01:17;;;;;;;;;;;19.30;52.30;;;18.45;53.16;101981.84;12132482;19;19915;-85
2023/09/03 05:05:22;;;;;;;;;;;19.30;52.30;;;18.49;52.96;101996.53;12129882;19;20010;-85
2023/09/03 05:09:24;;;;;;;;;;;19.30;52.50;;;18.50;53.04;102011.47;12128843;19;20013;-85
2023/09/03 05:13:26;;;;;;;;;;;19.30;52.50;;;18.55;53.31;102027.00;12130813;19;20196;-85
2023/09/03 05:17:28;;;;;;;;;;;19.30;52.70;;;18.58;53.08;102029.47;12129503;19;20017;-85
2023/09/03 05:21:30;;;;;;;;;;;19.40;52.80;;;18.60;53.20;102038.13;12130348;19;20715;-85
2023/09/03 05:25:32;;;;;;;;;;;19.40;52.90;;;18.65;53.26;102036.03;12134205;19;20016;-85
2023/09/03 05:29:34;;;;;;;;;;;19.50;52.80;;;18.62;53.22;102035.41;12127998;19;19960;-85
2023/09/03 05:33:35;;;;;;;;;;;19.50;52.80;;;18.66;53.48;102024.50;12129195;19;19929;-85
2023/09/03 05:37:37;;;;;;;;;;;19.50;53.20;;;18.69;53.40;102004.94;12130714;19;19935;-85
2023/09/03 05:41:39;;;;;;;;;;;19.60;52.90;;;18.78;53.53;102026.31;12128760;19;19927;-86
2023/09/03 05:45:44;;;;;;;;;;;19.60;52.90;;;18.83;53.57;102026.03;12128968;19;19938;-87
2023/09/03 05:49:48;;;;;;;;;;;19.70;52.90;;;18.75;53.53;102010.66;12126915;19;20855;-88
2023/09/03 05:53:49;;;;;;;;;;;19.70;52.80;;;18.89;53.70;102027.38;12126026;19;19926;-87
2023/09/03 05:57:54;;;;;;;;;;;19.80;52.80;;;18.84;53.66;102038.28;12128694;19;20212;-88
2023/09/03 06:01:57;;;;;;;;;;;19.80;52.80;;;18.87;53.72;102061.91;12121503;19;19950;-86
2023/09/03 06:06:07;;;;;;;;;;;19.80;52.70;;;18.82;53.78;102068.47;12132323;19;19943;-87
2023/09/03 06:10:09;;;;;;;;;;;19.80;52.80;;;18.91;53.69;102095.16;12129455;19;19955;-86
2023/09/03 06:14:11;;;;;;;;;;;19.80;52.90;;;18.81;53.55;102082.66;12129489;19;19947;-88
2023/09/03 06:18:13;;;;;;;;;;;19.90;52.80;;;19.00;53.70;102114.84;12131067;19;19923;-86
2023/09/03 06:22:14;;;;;;;;;;;19.90;53.00;;;19.08;53.80;102123.13;12132843;19;20216;-85
2023/09/03 06:26:16;;;;;;;;;;;19.90;53.00;;;19.14;53.91;102127.13;12130786;19;20207;-85
2023/09/03 06:30:17;;;;;;;;;;;20.00;52.80;;;19.19;53.61;102114.44;12132234;19;20313;-86
2023/09/03 06:34:20;;;;;;;;;;;20.00;53.00;;;19.24;53.88;102107.00;12142929;19;19930;-84
2023/09/03 06:38:22;;;;;;;;;;;20.10;53.00;;;19.24;53.73;102084.00;12145350;19;19922;-86
2023/09/03 06:42:26;;;;;;;;;;;20.20;53.00;;;19.35;53.97;102091.22;12143147;19;20672;-85
2023/09/03 06:46:28;;;;;;;;;;;20.20;52.90;;;19.35;53.73;102090.38;12141466;19;20781;-85
2023/09/03 06:50:29;;;;;;;;;;;20.20;52.90;;;19.33;53.93;102084.31;12142314;19;20181;-85
2023/09/03 06:54:31;;;;;;;;;;;20.30;52.80;;;19.43;53.67;102115.34;12138740;19;19933;-86
2023/09/03 06:58:32;;;;;;;;;;;20.30;52.90;;;19.44;53.84;102103.81;12143184;19;19915;-86
2023/09/03 07:02:34;;;;;;;;;;;20.40;52.90;;;19.51;53.63;102122.78;12139729;19;19922;-85
2023/09/03 07:06:35;;;;;;;;;;;20.40;52.90;;;19.56;53.89;102138.34;12140973;19;19923;-85
2023/09/03 07:10:36;;;;;;;;;;;20.50;52.90;;;19.58;53.80;102157.66;12141556;19;20718;-86
2023/09/03 07:14:38;;;;;;;;;;;20.50;52.80;;;19.57;53.58;102163.88;12137358;19;19958;-84
2023/09/03 07:18:40;;;;;;;;;;;20.50;52.90;;;19.59;54.08;102167.28;12137555;19;19919;-84
2023/09/03 07:22:41;;;;;;;;;;;20.60;52.90;;;19.59;53.96;102165.47;12133889;19;20274;-84
2023/09/03 07:26:43;;;;;;;;;;;20.60;52.90;;;19.64;53.93;102162.50;12140308;19;20176;-86
2023/09/03 07:30:44;;;;;;;;;;;20.60;53.00;;;19.70;53.98;102158.59;12135668;19;20168;-86
2023/09/03 07:34:46;;;;;;;;;;;20.70;53.20;;;19.74;54.05;102158.28;12139051;19;19934;-85
2023/09/03 07:38:48;;;;;;;;;;;20.70;53.20;;;19.94;53.98;102178.06;12140065;19;20306;-85
2023/09/03 07:42:50;;;;;;;;;;;20.80;53.10;;;19.91;54.23;102175.63;12141446;19;20390;-85
2023/09/03 07:46:51;;;;;;;;;;;20.90;53.20;;;19.89;53.99;102175.72;12143942;19;19934;-85
2023/09/03 07:50:53;;;;;;;;;;;21.00;53.10;;;20.07;53.77;102173.56;12137722;19;19931;-85
2023/09/03 07:54:54;;;;;;;;;;;21.00;53.10;;;20.08;54.13;102174.41;12137341;19;20990;-84
2023/09/03 07:58:56;;;;;;;;;;;21.10;53.00;;;20.22;54.28;102187.50;12138530;19;19929;-87
2023/09/03 08:02:57;;;;;;;;;;;21.10;53.00;;;20.27;54.04;102195.16;12137339;19;19922;-85
2023/09/03 08:06:59;;;;;;;;;;;21.30;53.10;;;20.41;54.34;102205.59;12138177;19;20727;-85
2023/09/03 08:11:01;;;;;;;;;;;21.30;53.10;;;20.46;53.88;102208.75;12139721;19;20260;-84
2023/09/03 08:15:02;;;;;;;;;;;21.40;52.90;;;20.44;54.20;102204.53;12137301;19;20901;-85
2023/09/03 08:19:04;;;;;;;;;;;21.50;52.80;;;20.61;54.07;102220.09;12138062;19;20180;-85
2023/09/03 08:23:05;;;;;;;;;;;21.60;52.70;;;20.73;54.03;102227.13;12136610;19;20192;-85
2023/09/03 08:27:08;;;;;;;;;;;21.70;52.80;;;20.74;53.94;102218.22;12136238;19;20282;-87
2023/09/03 08:31:10;;;;;;;;;;;21.70;52.50;;;20.86;53.98;102234.19;12135322;19;19926;-87
2023/09/03 08:35:11;;;;;;;;;;;21.80;52.20;;;20.88;53.94;102219.84;12132449;19;20994;-85
2023/09/03 08:39:13;;;;;;;;;;;21.80;52.10;;;20.95;54.18;102223.75;12134415;19;19923;-85
2023/09/03 08:43:17;;;;;;;;;;;21.90;52.30;;;20.97;54.27;102207.69;12132681;19;19922;-84
2023/09/03 08:47:19;;;;;;;;;;;22.00;52.30;;;21.00;54.13;102208.28;12131207;19;20271;-84
2023/09/03 08:51:21;;;;;;;;;;;22.10;52.20;;;21.08;53.93;102215.66;12132589;19;20670;-84
2023/09/03 08:55:24;;;;;;;;;;;22.10;52.10;;;21.12;53.89;102217.16;12126354;19;19922;-84
2023/09/03 08:59:25;;;;;;;;;;;22.10;52.00;;;21.21;53.97;102221.75;12125083;19;19930;-85
2023/09/03 09:03:29;;;;;;;;;;;22.20;51.80;;;21.25;53.88;102200.25;12123514;19;19930;-85
2023/09/03 09:07:32;;;;;;;;;;;22.30;51.80;;;21.33;54.13;102203.16;12100050;19;19926;-85
2023/09/03 09:11:39;;;;;;;;;;;22.30;51.70;;;21.40;53.99;102202.59;12124870;19;19915;-84
2023/09/03 09:15:42;;;;;;;;;;;22.40;51.70;;;21.43;53.77;102196.22;12126898;19;19926;-84
2023/09/03 09:19:44;;;;;;;;;;;22.40;51.60;;;21.53;54.02;102206.97;12120665;19;19952;-85
2023/09/03 09:23:48;;;;;;;;;;;22.50;51.40;;;21.35;53.99;102174.66;12126261;19;20387;-84
2023/09/03 09:27:55;;;;;;;;;;;22.60;51.40;;;21.46;53.96;102172.03;12121365;19;19923;-85
2023/09/03 09:31:56;;;;;;;;;;;22.70;51.50;;;21.70;54.00;102195.00;12125116;19;20195;-84
2023/09/03 09:36:13;;;;;;;;;;;22.80;51.50;;;21.91;54.09;102213.75;12123765;19;19926;-85
2023/09/03 09:40:24;;;;;;;;;;;22.90;51.50;;;22.03;53.90;102216.25;12127835;19;19923;-88
2023/09/03 09:44:25;;;;;;;;;;;23.00;50.90;;;22.12;54.02;102219.16;12127810;19;19929;-85
2023/09/03 09:48:27;;;;;;;;;;;23.10;51.30;;;22.24;53.88;102218.19;12129157;19;20203;-87
2023/09/03 09:52:36;;;;;;;;;;;23.20;51.40;;;22.39;53.91;102205.47;12124614;19;20024;-86
2023/09/03 09:56:37;;;;;;;;;;;23.40;51.30;;;22.48;53.79;102208.19;12125198;19;19930;-86
2023/09/03 10:00:41;;;;;;;;;;;23.50;51.10;;;22.66;53.83;102210.34;12124576;19;19963;-86
2023/09/03 10:04:44;;;;;;;;;;;23.70;51.20;;;22.78;53.69;102214.63;12123821;19;19923;-86
2023/09/03 10:08:47;;;;;;;;;;;23.80;51.20;;;22.80;53.80;102195.88;12135410;19;19953;-86
2023/09/03 10:12:49;;;;;;;;;;;23.90;50.90;;;22.88;53.66;102199.56;12141556;19;20685;-86
2023/09/03 10:16:52;;;;;;;;;;;24.00;50.90;;;23.03;53.56;102208.09;12140966;19;19931;-86
2023/09/03 10:20:55;;;;;;;;;;;24.10;50.60;;;23.12;53.68;102218.00;12138946;19;19930;-86
2023/09/03 10:25:08;;;;;;;;;;;24.20;50.80;;;23.08;53.54;102195.22;12137141;19;19918;-86
2023/09/03 10:29:11;;;;;;;;;;;24.20;50.60;;;23.26;53.28;102206.16;12140420;19;20029;-86
2023/09/03 10:33:13;;;;;;;;;;;24.30;50.70;;;23.34;53.54;102217.00;12137542;19;19919;-86
2023/09/03 10:37:15;;;;;;;;;;;24.40;50.50;;;23.35;53.21;102213.34;12142173;19;20033;-85
2023/09/03 10:41:21;;;;;;;;;;;24.40;50.30;;;23.41;53.62;102209.31;12142530;19;20752;-86
2023/09/03 10:45:23;;;;;;;;;;;24.50;49.90;;;23.32;53.60;102191.44;12142155;19;19927;-86
2023/09/03 10:49:40;;;;;;;;;;;24.60;49.90;;;23.47;53.34;102215.97;12141714;19;19923;-86
2023/09/03 10:53:42;;;;;;;;;;;24.60;50.10;;;23.49;53.05;102203.31;12138273;19;19931;-87
2023/09/03 10:58:08;;;;;;;;;;;24.60;48.80;;;23.57;53.32;102195.50;12142874;19;19945;-87
2023/09/03 11:02:27;;;;;;;;;;;24.70;49.50;;;23.78;53.38;102220.31;12138608;19;19934;-86
2023/09/03 11:06:34;;;;;;;;;;;24.80;49.80;;;23.91;53.05;102236.09;12140834;19;19943;-86
2023/09/03 11:10:35;;;;;;;;;;;24.90;48.90;;;23.99;53.26;102232.78;12139885;19;19923;-87
2023/09/03 11:14:37;;;;;;;;;;;25.00;49.20;;;24.03;52.95;102234.16;12142930;19;19938;-86
2023/09/03 11:18:46;;;;;;;;;;;25.00;49.10;;;24.10;52.66;102235.31;12137309;19;19930;-86
2023/09/03 11:22:48;;;;;;;;;;;25.10;49.30;;;24.18;53.00;102231.97;12139202;19;19927;-86
2023/09/03 11:27:03;;;;;;;;;;;25.20;49.50;;;24.24;52.71;102248.28;12139562;19;19922;-86
2023/09/03 11:31:05;;;;;;;;;;;25.30;48.60;;;24.24;52.38;102244.78;12138881;19;19923;-86
2023/09/03 11:35:07;;;;;;;;;;;25.30;49.20;;;24.34;52.80;102250.16;12137771;19;19919;-86
2023/09/03 11:39:12;;;;;;;;;;;25.30;49.00;;;24.35;52.24;102247.31;12146936;19;19922;-86
2023/09/03 11:43:14;;;;;;;;;;;25.30;49.00;;;24.26;52.31;102242.81;12136655;19;20224;-86
2023/09/03 11:47:15;;;;;;;;;;;25.30;48.70;;;24.35;52.14;102259.84;12142842;19;20670;-86
2023/09/03 11:51:28;;;;;;;;;;;25.30;48.80;;;24.33;52.06;102267.13;12139965;19;20006;-86
2023/09/03 11:55:33;;;;;;;;;;;25.30;48.60;;;24.22;52.49;102246.72;12139984;19;20307;-86
2023/09/03 11:59:34;;;;;;;;;;;25.30;48.40;;;24.38;51.90;102272.91;12135269;19;19946;-86
2023/09/03 12:03:38;;;;;;;;;;;25.30;48.70;;;24.25;52.42;102260.66;12137332;19;20847;-88
2023/09/03 12:07:39;;;;;;;;;;;25.30;48.00;;;24.31;51.81;102271.78;12141058;19;19937;-88
2023/09/03 12:11:40;;;;;;;;;;;25.30;46.70;;;24.26;52.01;102257.00;12142586;19;19959;-88
2023/09/03 12:15:42;;;;;;;;;;;25.30;48.10;;;24.29;51.91;102264.72;12132072;19;20022;-88
2023/09/03 12:19:44;;;;;;;;;;;25.30;47.80;;;24.37;51.91;102279.25;12142091;19;19948;-88
2023/09/03 12:23:45;;;;;;;;;;;25.30;48.40;;;24.40;51.86;102284.31;12142106;19;19975;-87
2023/09/03 12:27:48;;;;;;;;;;;25.30;48.50;;;24.45;51.78;102284.78;12142049;19;20031;-87
2023/09/03 12:31:49;;;;;;;;;;;25.30;48.50;;;24.24;51.69;102247.44;12137039;19;19923;-87
2023/09/03 12:36:13;;;;;;;;;;;25.40;47.70;;;24.55;51.48;102290.09;12131667;19;19926;-86
2023/09/03 12:40:15;;;;;;;;;;;25.40;48.20;;;24.46;51.62;102283.78;12139522;19;20025;-87
2023/09/03 12:44:17;;;;;;;;;;;25.40;47.80;;;24.61;51.28;102294.94;12129144;19;19927;-87
2023/09/03 12:48:18;;;;;;;;;;;25.50;48.00;;;24.64;51.56;102302.66;12134922;19;19941;-86
2023/09/03 12:52:20;;;;;;;;;;;25.50;44.50;;;24.59;51.56;102296.88;12134058;19;19926;-87
2023/09/03 12:56:22;;;;;;;;;;;25.50;47.20;;;24.45;51.46;102279.44;12131342;19;20275;-86
2023/09/03 13:00:23;;;;;;;;;;;25.50;47.50;;;24.59;51.45;102297.72;12139391;19;19933;-87
2023/09/03 13:04:24;;;;;;;;;;;25.50;45.90;;;24.61;51.47;102295.75;12135076;19;19915;-86
2023/09/03 13:08:26;;;;;;;;;;;25.50;47.40;;;24.66;51.28;102292.69;12125450;19;19933;-88
2023/09/03 13:12:27;;;;;;;;;;;25.50;47.70;;;24.73;51.34;102301.81;12127537;19;19927;-86
2023/09/03 13:16:29;;;;;;;;;;;25.50;47.90;;;24.75;50.89;102291.00;12129619;19;19931;-86
2023/09/03 13:20:30;;;;;;;;;;;25.60;47.60;;;24.76;50.78;102290.00;12132635;19;19948;-86
2023/09/03 13:24:31;;;;;;;;;;;25.60;46.10;;;24.76;50.70;102288.16;12138771;19;19930;-86
2023/09/03 13:28:33;;;;;;;;;;;25.60;47.30;;;24.81;50.65;102283.25;12136274;19;19952;-86
2023/09/03 13:32:34;;;;;;;;;;;25.70;47.80;;;24.71;50.75;102271.75;12134191;19;19926;-86
2023/09/03 13:36:36;;;;;;;;;;;25.60;44.80;;;24.72;50.78;102276.94;12136553;19;19926;-86
2023/09/03 13:40:38;;;;;;;;;;;25.60;46.50;;;24.77;50.73;102286.38;12133930;19;19922;-86
2023/09/03 13:44:39;;;;;;;;;;;25.60;46.70;;;24.76;50.68;102288.16;12146603;19;20041;-86
2023/09/03 13:48:41;;;;;;;;;;;25.60;47.40;;;24.71;50.41;102272.56;12145359;19;20022;-86
2023/09/03 13:52:43;;;;;;;;;;;25.60;47.60;;;24.80;50.37;102294.09;12134771;19;19939;-87
2023/09/03 13:56:44;;;;;;;;;;;25.70;47.30;;;24.85;50.65;102299.88;12144522;19;20252;-87
2023/09/03 14:00:45;;;;;;;;;;;25.60;47.40;;;24.86;50.77;102309.56;12136010;19;19922;-87
2023/09/03 14:04:48;;;;;;;;;;;25.70;47.50;;;24.87;50.60;102298.75;12134950;19;20276;-85
2023/09/03 14:08:49;;;;;;;;;;;25.70;46.70;;;24.83;50.57;102291.97;12145234;19;20306;-85
2023/09/03 14:12:51;;;;;;;;;;;25.70;47.30;;;24.83;50.13;102288.47;12108068;19;19926;-86
2023/09/03 14:16:52;;;;;;;;;;;25.60;47.10;;;24.81;50.27;102298.44;12136316;19;19930;-85
2023/09/03 14:20:53;;;;;;;;;;;25.60;47.10;;;24.83;50.01;102300.00;12125193;19;19933;-84
2023/09/03 14:24:55;;;;;;;;;;;25.60;47.40;;;24.83;49.95;102304.50;12055174;19;20359;-85
2023/09/03 14:28:56;;;;;;;;;;;25.60;47.30;;;24.78;50.08;102298.72;12111790;19;19974;-85
2023/09/03 14:32:58;;;;;;;;;;;25.60;46.40;;;24.82;50.27;102311.69;12133003;19;19919;-85
2023/09/03 14:41:18;;;;;;;;;;;25.50;45.50;;;24.66;50.00;102296.19;12176555;19;19993;-82
2023/09/03 14:45:19;;;;;;;;;;;25.50;46.40;;;24.73;49.80;102297.34;12242538;19;19983;-83
2023/09/03 14:49:38;;;;;;;;;;;25.50;46.20;;;24.65;50.14;102283.81;12238956;19;19958;-84
2023/09/03 14:53:40;;;;;;;;;;;25.50;46.60;;;24.71;49.69;102293.94;12244915;19;19923;-85
2023/09/03 14:57:41;;;;;;;;;;;25.50;46.70;;;24.66;49.50;102288.19;12249620;19;19919;-85
2023/09/03 15:01:42;;;;;;;;;;;25.40;46.10;;;24.64;49.93;102281.28;12241023;19;19923;-85
2023/09/03 15:05:44;;;;;;;;;;;25.40;46.10;;;24.57;49.73;102280.97;12249474;19;19919;-85
2023/09/03 15:09:51;;;;;;;;;;;25.40;46.80;;;24.62;49.40;102289.44;12243769;19;19937;-84
2023/09/03 15:13:55;;;;;;;;;;;25.40;47.00;;;24.59;49.48;102287.03;12249658;19;19939;-84
2023/09/03 15:17:57;;;;;;;;;;;25.30;46.30;;;24.62;49.66;102305.44;12242317;19;19969;-86
2023/09/03 15:21:58;;;;;;;;;;;25.30;46.90;;;24.53;49.58;102284.94;12238069;19;19932;-85
2023/09/03 15:26:02;;;;;;;;;;;25.30;46.90;;;24.61;49.50;102298.44;12247387;19;19919;-85
2023/09/03 15:30:04;;;;;;;;;;;25.30;46.40;;;24.57;49.57;102288.16;12243583;19;19923;-85
2023/09/03 15:34:08;;;;;;;;;;;25.30;46.80;;;24.43;49.67;102258.16;12245825;19;19927;-86
2023/09/03 15:38:10;;;;;;;;;;;25.40;47.10;;;24.69;49.49;102301.25;12245739;19;20324;-86
2023/09/03 15:42:12;;;;;;;;;;;25.40;46.80;;;24.68;49.27;102304.06;12246081;19;19919;-84
2023/09/03 15:46:13;;;;;;;;;;;25.40;46.60;;;24.66;49.11;102293.53;12246413;19;19945;-84
2023/09/03 15:50:15;;;;;;;;;;;25.40;46.70;;;24.49;49.07;102268.34;12248295;19;19918;-85
2023/09/03 15:54:17;;;;;;;;;;;25.40;46.50;;;24.65;49.04;102290.97;12248274;19;20255;-84
2023/09/03 15:58:19;;;;;;;;;;;25.40;46.20;;;24.67;49.42;102299.72;12248682;19;19925;-84
2023/09/03 16:02:20;;;;;;;;;;;25.40;46.00;;;24.65;49.03;102304.34;12248569;19;19907;-84
2023/09/03 16:06:22;;;;;;;;;;;25.40;46.40;;;24.63;48.96;102314.34;12249931;19;19953;-84
2023/09/03 16:10:23;;;;;;;;;;;25.30;46.50;;;24.48;48.91;102292.50;12244091;19;19935;-83
2023/09/03 16:14:26;;;;;;;;;;;25.30;46.40;;;24.52;49.08;102299.28;12247518;19;19935;-83
2023/09/03 16:18:28;;;;;;;;;;;25.30;46.60;;;24.37;48.90;102272.06;12248583;19;20309;-83
2023/09/03 16:22:29;;;;;;;;;;;25.20;46.70;;;24.48;48.62;102293.34;12249833;19;19919;-83
2023/09/03 16:26:31;;;;;;;;;;;25.30;46.50;;;24.49;49.20;102302.19;12246156;19;19969;-83
2023/09/03 16:30:36;;;;;;;;;;;25.20;46.40;;;24.29;48.94;102264.72;12241730;19;20284;-83
2023/09/03 16:34:37;;;;;;;;;;;25.20;46.50;;;24.49;48.68;102297.72;12248615;19;19927;-84
2023/09/03 16:38:38;;;;;;;;;;;25.20;46.60;;;24.39;48.89;102288.81;12246472;19;20013;-82
2023/09/03 16:42:40;;;;;;;;;;;25.20;46.20;;;24.46;48.71;102305.97;12249365;19;20004;-82
2023/09/03 16:46:41;;;;;;;;;;;25.10;46.50;;;24.47;48.86;102312.19;12247838;19;19911;-83
2023/09/03 16:50:43;;;;;;;;;;;25.20;46.70;;;24.48;48.86;102312.03;12244361;19;19959;-82
2023/09/03 16:54:44;;;;;;;;;;;25.10;46.70;;;24.43;48.42;102314.25;12247936;19;20345;-83
2023/09/03 16:58:45;;;;;;;;;;;25.10;46.80;;;24.38;48.96;102304.94;12246819;19;19927;-83
2023/09/03 17:02:47;;;;;;;;;;;25.10;46.60;;;24.46;48.62;102321.16;12246026;19;19915;-83
2023/09/03 17:06:48;;;;;;;;;;;25.10;46.60;;;24.43;48.37;102326.75;12246876;19;19919;-83
2023/09/03 17:10:49;;;;;;;;;;;25.10;46.70;;;24.34;48.38;102331.09;12240282;19;19922;-82
2023/09/03 17:14:51;;;;;;;;;;;25.10;46.10;;;24.35;48.60;102323.91;12242740;19;19931;-83
2023/09/03 17:18:56;;;;;;;;;;;25.10;46.50;;;24.34;48.45;102327.59;12245543;19;19922;-83
2023/09/03 17:22:57;;;;;;;;;;;25.00;46.50;;;23.92;48.56;102274.31;12247337;19;19940;-83
2023/09/03 17:26:59;;;;;;;;;;;25.00;46.60;;;24.28;48.44;102335.16;12246745;19;20248;-85
2023/09/03 17:31:02;;;;;;;;;;;24.90;46.70;;;24.26;48.74;102326.41;12241547;19;19937;-84
2023/09/03 17:35:04;;;;;;;;;;;24.90;46.60;;;24.20;48.31;102324.31;12245102;19;19942;-84
2023/09/03 17:39:05;;;;;;;;;;;24.90;46.70;;;24.18;48.49;102330.75;12243306;19;19925;-83
2023/09/03 17:43:07;;;;;;;;;;;24.80;46.70;;;24.18;48.61;102328.09;12245176;19;19922;-84
2023/09/03 17:47:08;;;;;;;;;;;24.80;46.80;;;24.16;48.29;102338.03;12244530;19;19919;-84
2023/09/03 17:51:09;;;;;;;;;;;24.80;46.90;;;23.89;48.45;102306.59;12240818;19;19945;-83
2023/09/03 17:55:14;;;;;;;;;;;24.70;47.00;;;23.99;48.22;102320.84;12244019;19;20293;-83
2023/09/03 17:59:15;;;;;;;;;;;24.70;47.00;;;23.97;48.69;102328.13;12242235;19;19918;-83
2023/09/03 18:03:17;;;;;;;;;;;24.70;47.10;;;23.98;48.61;102337.81;12244045;19;19917;-83
2023/09/03 18:07:18;;;;;;;;;;;24.60;47.10;;;23.86;48.35;102331.72;12236790;19;19911;-83
2023/09/03 18:11:19;;;;;;;;;;;24.50;47.10;;;23.89;48.53;102357.31;12236143;19;19942;-83
2023/09/03 18:15:21;;;;;;;;;;;24.50;47.10;;;23.72;48.28;102332.91;12242432;19;19963;-82
2023/09/03 18:19:22;;;;;;;;;;;24.50;47.10;;;23.65;48.33;102337.03;12235450;19;20271;-83
2023/09/03 18:23:24;;;;;;;;;;;24.40;47.00;;;23.63;48.51;102350.53;12244206;19;19922;-83
2023/09/03 18:27:25;;;;;;;;;;;24.30;47.00;;;23.57;48.28;102363.53;12241590;19;19998;-83